East Union, Washington
Current Conditions -  °F | °C
As of 2:53 AM on Sunday 26 Oct 2014 (Local Time) from KBFI Reporting Station
Scattered Clouds Scattered Clouds  
Wind Chill: 55°   Ceiling: Unl
Heat Index: 55°   Visibility: 10mi
Dew Point: 43°   Wind: 12mph
Humidity: 64%   Direction: 200°SSW
Pressure: 29.83"   Gusts: 23mph
Location:  47.6108°N, 122.302°W
Report Text: KBFI 260953Z 20010G20KT 10SM SCT110 13/06 A2983 RMK AO2 SLP101 T01280061
Loading
Personal Weather Stations






























Interactive Weather Map New forecast layout! Learn more

10-Day Weather Forecast

Advertisements
Track Severe Weather on mobile